sensor_id;sensor_type;location;lat;lon;timestamp;temperature;humidity
4354;DHT22;11018;51.258;6.806;2023-04-19T00:00:33;12.00;43.30
4354;DHT22;11018;51.258;6.806;2023-04-19T00:03:00;12.10;43.00
4354;DHT22;11018;51.258;6.806;2023-04-19T00:05:26;12.10;43.00
4354;DHT22;11018;51.258;6.806;2023-04-19T00:07:52;12.00;43.60
4354;DHT22;11018;51.258;6.806;2023-04-19T00:10:18;12.00;42.70
4354;DHT22;11018;51.258;6.806;2023-04-19T00:12:43;12.00;42.80
4354;DHT22;11018;51.258;6.806;2023-04-19T00:15:09;12.00;44.30
4354;DHT22;11018;51.258;6.806;2023-04-19T00:17:35;12.00;44.30
4354;DHT22;11018;51.258;6.806;2023-04-19T00:20:00;12.00;44.60
4354;DHT22;11018;51.258;6.806;2023-04-19T00:22:26;12.00;44.20
4354;DHT22;11018;51.258;6.806;2023-04-19T00:24:52;12.00;44.40
4354;DHT22;11018;51.258;6.806;2023-04-19T00:27:18;12.00;44.80
4354;DHT22;11018;51.258;6.806;2023-04-19T00:29:43;12.00;45.90
4354;DHT22;11018;51.258;6.806;2023-04-19T00:32:09;11.80;46.50
4354;DHT22;11018;51.258;6.806;2023-04-19T00:34:35;11.90;45.90
4354;DHT22;11018;51.258;6.806;2023-04-19T00:37:01;12.00;45.70
4354;DHT22;11018;51.258;6.806;2023-04-19T00:39:28;12.00;46.00
4354;DHT22;11018;51.258;6.806;2023-04-19T00:41:54;11.90;46.60
4354;DHT22;11018;51.258;6.806;2023-04-19T00:44:22;12.00;46.70
4354;DHT22;11018;51.258;6.806;2023-04-19T00:46:47;12.10;46.50
4354;DHT22;11018;51.258;6.806;2023-04-19T00:49:13;12.00;46.80
4354;DHT22;11018;51.258;6.806;2023-04-19T00:51:39;12.00;46.80
4354;DHT22;11018;51.258;6.806;2023-04-19T00:54:05;12.00;47.30
4354;DHT22;11018;51.258;6.806;2023-04-19T00:56:33;12.00;48.20
4354;DHT22;11018;51.258;6.806;2023-04-19T00:58:59;12.00;47.90
4354;DHT22;11018;51.258;6.806;2023-04-19T01:01:24;12.00;48.00
4354;DHT22;11018;51.258;6.806;2023-04-19T01:03:50;12.00;47.80
4354;DHT22;11018;51.258;6.806;2023-04-19T01:06:16;12.00;48.20
4354;DHT22;11018;51.258;6.806;2023-04-19T01:08:41;12.00;48.50
4354;DHT22;11018;51.258;6.806;2023-04-19T01:11:07;12.00;48.80
4354;DHT22;11018;51.258;6.806;2023-04-19T01:13:33;12.00;49.10
4354;DHT22;11018;51.258;6.806;2023-04-19T01:15:59;12.00;49.60
4354;DHT22;11018;51.258;6.806;2023-04-19T01:18:24;12.00;49.80
4354;DHT22;11018;51.258;6.806;2023-04-19T01:20:51;11.90;50.90
4354;DHT22;11018;51.258;6.806;2023-04-19T01:23:17;11.90;51.30
4354;DHT22;11018;51.258;6.806;2023-04-19T01:25:42;12.00;51.10
4354;DHT22;11018;51.258;6.806;2023-04-19T01:28:08;12.00;50.90
4354;DHT22;11018;51.258;6.806;2023-04-19T01:30:34;12.10;51.20
4354;DHT22;11018;51.258;6.806;2023-04-19T01:33:00;12.10;51.40
4354;DHT22;11018;51.258;6.806;2023-04-19T01:35:25;12.10;51.60
4354;DHT22;11018;51.258;6.806;2023-04-19T01:37:51;12.10;51.70
4354;DHT22;11018;51.258;6.806;2023-04-19T01:40:21;12.10;52.00
4354;DHT22;11018;51.258;6.806;2023-04-19T01:42:47;12.00;52.50
4354;DHT22;11018;51.258;6.806;2023-04-19T01:45:12;12.10;52.60
4354;DHT22;11018;51.258;6.806;2023-04-19T01:47:38;12.00;53.20
4354;DHT22;11018;51.258;6.806;2023-04-19T01:50:03;12.10;53.40
4354;DHT22;11018;51.258;6.806;2023-04-19T01:52:29;12.00;54.40
4354;DHT22;11018;51.258;6.806;2023-04-19T01:54:55;12.00;54.10
4354;DHT22;11018;51.258;6.806;2023-04-19T01:57:20;12.00;54.30
4354;DHT22;11018;51.258;6.806;2023-04-19T01:59:47;12.10;54.90
4354;DHT22;11018;51.258;6.806;2023-04-19T02:02:13;12.00;55.30
4354;DHT22;11018;51.258;6.806;2023-04-19T02:04:38;12.00;56.40
4354;DHT22;11018;51.258;6.806;2023-04-19T02:07:04;12.00;56.50
4354;DHT22;11018;51.258;6.806;2023-04-19T02:09:29;12.10;55.90
4354;DHT22;11018;51.258;6.806;2023-04-19T02:11:55;12.10;56.10
4354;DHT22;11018;51.258;6.806;2023-04-19T02:14:20;12.10;56.80
4354;DHT22;11018;51.258;6.806;2023-04-19T02:16:47;12.10;57.00
4354;DHT22;11018;51.258;6.806;2023-04-19T02:19:12;12.00;57.70
4354;DHT22;11018;51.258;6.806;2023-04-19T02:21:38;12.00;57.80
4354;DHT22;11018;51.258;6.806;2023-04-19T02:24:04;12.00;57.80
4354;DHT22;11018;51.258;6.806;2023-04-19T02:26:29;11.90;58.30
4354;DHT22;11018;51.258;6.806;2023-04-19T02:28:55;11.80;58.80
4354;DHT22;11018;51.258;6.806;2023-04-19T02:31:20;11.70;60.10
4354;DHT22;11018;51.258;6.806;2023-04-19T02:33:46;11.70;61.00
4354;DHT22;11018;51.258;6.806;2023-04-19T02:36:12;11.50;61.30
4354;DHT22;11018;51.258;6.806;2023-04-19T02:38:37;11.50;61.70
4354;DHT22;11018;51.258;6.806;2023-04-19T02:41:03;11.50;63.30
4354;DHT22;11018;51.258;6.806;2023-04-19T02:43:30;11.40;62.80
4354;DHT22;11018;51.258;6.806;2023-04-19T02:45:56;11.30;63.60
4354;DHT22;11018;51.258;6.806;2023-04-19T02:48:21;11.20;64.50
4354;DHT22;11018;51.258;6.806;2023-04-19T02:50:47;11.10;65.10
4354;DHT22;11018;51.258;6.806;2023-04-19T02:53:12;11.10;65.00
4354;DHT22;11018;51.258;6.806;2023-04-19T02:55:38;11.10;65.30
4354;DHT22;11018;51.258;6.806;2023-04-19T02:58:03;11.00;66.10
4354;DHT22;11018;51.258;6.806;2023-04-19T03:00:29;10.90;66.80
4354;DHT22;11018;51.258;6.806;2023-04-19T03:02:55;10.90;66.60
4354;DHT22;11018;51.258;6.806;2023-04-19T03:05:22;10.80;67.70
4354;DHT22;11018;51.258;6.806;2023-04-19T03:07:47;10.80;68.00
4354;DHT22;11018;51.258;6.806;2023-04-19T03:10:13;10.80;67.50
4354;DHT22;11018;51.258;6.806;2023-04-19T03:12:38;10.80;67.40
4354;DHT22;11018;51.258;6.806;2023-04-19T03:15:05;10.80;67.70
4354;DHT22;11018;51.258;6.806;2023-04-19T03:17:31;10.80;67.70
4354;DHT22;11018;51.258;6.806;2023-04-19T03:19:57;10.80;68.00
4354;DHT22;11018;51.258;6.806;2023-04-19T03:22:23;10.70;68.80
4354;DHT22;11018;51.258;6.806;2023-04-19T03:24:48;10.70;70.60
4354;DHT22;11018;51.258;6.806;2023-04-19T03:27:14;10.70;69.60
4354;DHT22;11018;51.258;6.806;2023-04-19T03:29:39;10.80;67.90
4354;DHT22;11018;51.258;6.806;2023-04-19T03:32:06;10.90;68.30
4354;DHT22;11018;51.258;6.806;2023-04-19T03:34:32;10.80;69.30
4354;DHT22;11018;51.258;6.806;2023-04-19T03:36:59;10.90;68.40
4354;DHT22;11018;51.258;6.806;2023-04-19T03:39:25;11.10;65.00
4354;DHT22;11018;51.258;6.806;2023-04-19T03:41:50;11.10;63.90
4354;DHT22;11018;51.258;6.806;2023-04-19T03:44:16;11.10;65.30
4354;DHT22;11018;51.258;6.806;2023-04-19T03:46:41;11.20;63.30
4354;DHT22;11018;51.258;6.806;2023-04-19T03:49:07;11.30;61.10
4354;DHT22;11018;51.258;6.806;2023-04-19T03:51:32;11.30;59.50
4354;DHT22;11018;51.258;6.806;2023-04-19T03:53:59;11.30;59.50
4354;DHT22;11018;51.258;6.806;2023-04-19T03:56:24;11.30;58.50
4354;DHT22;11018;51.258;6.806;2023-04-19T03:58:50;11.30;58.00
4354;DHT22;11018;51.258;6.806;2023-04-19T04:01:20;11.30;57.30
4354;DHT22;11018;51.258;6.806;2023-04-19T04:03:46;11.30;57.00
4354;DHT22;11018;51.258;6.806;2023-04-19T04:06:12;11.30;56.80
4354;DHT22;11018;51.258;6.806;2023-04-19T04:08:37;11.40;55.80
4354;DHT22;11018;51.258;6.806;2023-04-19T04:11:03;11.30;55.70
4354;DHT22;11018;51.258;6.806;2023-04-19T04:13:29;11.30;56.80
4354;DHT22;11018;51.258;6.806;2023-04-19T04:15:54;11.40;54.70
4354;DHT22;11018;51.258;6.806;2023-04-19T04:18:20;11.30;55.00
4354;DHT22;11018;51.258;6.806;2023-04-19T04:20:46;11.30;55.80
4354;DHT22;11018;51.258;6.806;2023-04-19T04:23:11;11.40;54.00
4354;DHT22;11018;51.258;6.806;2023-04-19T04:25:38;11.30;54.00
4354;DHT22;11018;51.258;6.806;2023-04-19T04:28:04;11.40;53.00
4354;DHT22;11018;51.258;6.806;2023-04-19T04:30:30;11.40;50.50
4354;DHT22;11018;51.258;6.806;2023-04-19T04:32:56;11.40;49.60
4354;DHT22;11018;51.258;6.806;2023-04-19T04:35:23;11.40;49.30
4354;DHT22;11018;51.258;6.806;2023-04-19T04:37:48;11.40;48.50
4354;DHT22;11018;51.258;6.806;2023-04-19T04:40:14;11.40;47.80
4354;DHT22;11018;51.258;6.806;2023-04-19T04:42:40;11.40;47.70
4354;DHT22;11018;51.258;6.806;2023-04-19T04:45:07;11.40;47.20
4354;DHT22;11018;51.258;6.806;2023-04-19T04:47:35;11.50;46.30
4354;DHT22;11018;51.258;6.806;2023-04-19T04:50:01;11.50;46.90
4354;DHT22;11018;51.258;6.806;2023-04-19T04:52:28;11.50;45.90
4354;DHT22;11018;51.258;6.806;2023-04-19T04:54:54;11.40;45.40
4354;DHT22;11018;51.258;6.806;2023-04-19T04:57:19;11.50;44.90
4354;DHT22;11018;51.258;6.806;2023-04-19T04:59:45;11.50;43.90
4354;DHT22;11018;51.258;6.806;2023-04-19T05:02:15;11.50;43.70
4354;DHT22;11018;51.258;6.806;2023-04-19T05:04:41;11.60;42.50
4354;DHT22;11018;51.258;6.806;2023-04-19T05:07:07;11.50;42.10
4354;DHT22;11018;51.258;6.806;2023-04-19T05:09:32;11.60;41.70
4354;DHT22;11018;51.258;6.806;2023-04-19T05:11:58;11.50;41.30
4354;DHT22;11018;51.258;6.806;2023-04-19T05:14:23;11.40;40.10
4354;DHT22;11018;51.258;6.806;2023-04-19T05:16:49;11.30;39.10
4354;DHT22;11018;51.258;6.806;2023-04-19T05:19:15;11.30;38.50
4354;DHT22;11018;51.258;6.806;2023-04-19T05:21:40;11.30;39.20
4354;DHT22;11018;51.258;6.806;2023-04-19T05:24:06;11.20;37.50
4354;DHT22;11018;51.258;6.806;2023-04-19T05:26:34;11.20;37.50
4354;DHT22;11018;51.258;6.806;2023-04-19T05:28:59;11.10;37.40
4354;DHT22;11018;51.258;6.806;2023-04-19T05:31:25;11.10;36.40
4354;DHT22;11018;51.258;6.806;2023-04-19T05:33:51;11.10;36.30
4354;DHT22;11018;51.258;6.806;2023-04-19T05:36:16;11.00;35.40
4354;DHT22;11018;51.258;6.806;2023-04-19T05:38:42;11.00;35.50
4354;DHT22;11018;51.258;6.806;2023-04-19T05:41:07;10.90;35.80
4354;DHT22;11018;51.258;6.806;2023-04-19T05:43:33;11.00;35.20
4354;DHT22;11018;51.258;6.806;2023-04-19T05:45:58;11.00;35.40
4354;DHT22;11018;51.258;6.806;2023-04-19T05:48:24;10.90;34.20
4354;DHT22;11018;51.258;6.806;2023-04-19T05:50:52;11.00;34.30
4354;DHT22;11018;51.258;6.806;2023-04-19T05:53:19;11.00;33.80
4354;DHT22;11018;51.258;6.806;2023-04-19T05:55:45;11.00;33.40
4354;DHT22;11018;51.258;6.806;2023-04-19T05:58:12;11.10;33.00
4354;DHT22;11018;51.258;6.806;2023-04-19T06:00:38;11.20;32.00
4354;DHT22;11018;51.258;6.806;2023-04-19T06:03:03;11.20;31.90
4354;DHT22;11018;51.258;6.806;2023-04-19T06:05:29;11.10;32.00
4354;DHT22;11018;51.258;6.806;2023-04-19T06:07:54;11.20;31.70
4354;DHT22;11018;51.258;6.806;2023-04-19T06:10:21;11.20;31.80
4354;DHT22;11018;51.258;6.806;2023-04-19T06:12:47;11.20;31.50
4354;DHT22;11018;51.258;6.806;2023-04-19T06:15:13;11.20;31.10
4354;DHT22;11018;51.258;6.806;2023-04-19T06:17:38;11.10;32.10
4354;DHT22;11018;51.258;6.806;2023-04-19T06:20:06;11.20;30.60
4354;DHT22;11018;51.258;6.806;2023-04-19T06:22:32;11.20;30.10
4354;DHT22;11018;51.258;6.806;2023-04-19T06:24:58;11.20;31.20
4354;DHT22;11018;51.258;6.806;2023-04-19T06:27:23;11.30;30.80
4354;DHT22;11018;51.258;6.806;2023-04-19T06:29:49;11.40;30.70
4354;DHT22;11018;51.258;6.806;2023-04-19T06:32:14;11.30;31.40
4354;DHT22;11018;51.258;6.806;2023-04-19T06:34:40;11.40;28.80
4354;DHT22;11018;51.258;6.806;2023-04-19T06:37:06;11.30;28.90
4354;DHT22;11018;51.258;6.806;2023-04-19T06:39:31;11.30;29.70
4354;DHT22;11018;51.258;6.806;2023-04-19T06:41:57;11.30;29.50
4354;DHT22;11018;51.258;6.806;2023-04-19T06:44:22;11.20;29.90
4354;DHT22;11018;51.258;6.806;2023-04-19T06:46:48;11.10;30.40
4354;DHT22;11018;51.258;6.806;2023-04-19T06:49:14;11.20;29.50
4354;DHT22;11018;51.258;6.806;2023-04-19T06:51:39;11.20;29.10
4354;DHT22;11018;51.258;6.806;2023-04-19T06:54:05;11.20;28.00
4354;DHT22;11018;51.258;6.806;2023-04-19T06:56:45;11.10;28.10
4354;DHT22;11018;51.258;6.806;2023-04-19T06:59:15;11.10;27.60
4354;DHT22;11018;51.258;6.806;2023-04-19T07:01:42;11.00;28.10
4354;DHT22;11018;51.258;6.806;2023-04-19T07:04:08;11.10;28.10
4354;DHT22;11018;51.258;6.806;2023-04-19T07:06:34;11.10;27.90
4354;DHT22;11018;51.258;6.806;2023-04-19T07:09:00;11.10;28.40
4354;DHT22;11018;51.258;6.806;2023-04-19T07:11:26;11.10;28.90
4354;DHT22;11018;51.258;6.806;2023-04-19T07:13:51;11.10;28.80
4354;DHT22;11018;51.258;6.806;2023-04-19T07:16:17;11.20;29.40
4354;DHT22;11018;51.258;6.806;2023-04-19T07:18:43;11.20;28.20
4354;DHT22;11018;51.258;6.806;2023-04-19T07:21:09;11.30;28.80
4354;DHT22;11018;51.258;6.806;2023-04-19T07:23:34;11.30;29.00
4354;DHT22;11018;51.258;6.806;2023-04-19T07:26:00;11.30;28.90
4354;DHT22;11018;51.258;6.806;2023-04-19T07:28:28;11.30;28.50
4354;DHT22;11018;51.258;6.806;2023-04-19T07:30:54;11.60;28.20
4354;DHT22;11018;51.258;6.806;2023-04-19T07:33:20;11.80;27.20
4354;DHT22;11018;51.258;6.806;2023-04-19T07:35:46;11.80;24.90
4354;DHT22;11018;51.258;6.806;2023-04-19T07:38:11;11.70;25.30
4354;DHT22;11018;51.258;6.806;2023-04-19T07:40:37;11.60;25.40
4354;DHT22;11018;51.258;6.806;2023-04-19T07:43:03;11.60;24.70
4354;DHT22;11018;51.258;6.806;2023-04-19T07:45:31;11.60;23.90
4354;DHT22;11018;51.258;6.806;2023-04-19T07:47:57;11.70;24.00
4354;DHT22;11018;51.258;6.806;2023-04-19T07:50:24;11.70;22.30
4354;DHT22;11018;51.258;6.806;2023-04-19T07:52:51;11.80;22.30
4354;DHT22;11018;51.258;6.806;2023-04-19T07:55:16;12.00;21.50
4354;DHT22;11018;51.258;6.806;2023-04-19T07:57:42;12.20;21.70
4354;DHT22;11018;51.258;6.806;2023-04-19T08:00:13;12.40;21.60
4354;DHT22;11018;51.258;6.806;2023-04-19T08:02:44;12.60;21.60
4354;DHT22;11018;51.258;6.806;2023-04-19T08:05:11;12.70;18.70
4354;DHT22;11018;51.258;6.806;2023-04-19T08:07:37;12.70;18.40
4354;DHT22;11018;51.258;6.806;2023-04-19T08:10:04;12.70;19.40
4354;DHT22;11018;51.258;6.806;2023-04-19T08:12:29;12.70;18.40
4354;DHT22;11018;51.258;6.806;2023-04-19T08:14:55;12.70;17.50
4354;DHT22;11018;51.258;6.806;2023-04-19T08:17:20;12.80;18.20
4354;DHT22;11018;51.258;6.806;2023-04-19T08:19:48;12.80;17.60
4354;DHT22;11018;51.258;6.806;2023-04-19T08:22:15;12.90;16.90
4354;DHT22;11018;51.258;6.806;2023-04-19T08:24:41;13.00;16.60
4354;DHT22;11018;51.258;6.806;2023-04-19T08:27:08;13.10;16.20
4354;DHT22;11018;51.258;6.806;2023-04-19T08:29:33;13.20;15.40
4354;DHT22;11018;51.258;6.806;2023-04-19T08:31:59;13.20;15.30
4354;DHT22;11018;51.258;6.806;2023-04-19T08:34:26;12.90;15.10
4354;DHT22;11018;51.258;6.806;2023-04-19T08:36:52;12.90;14.70
4354;DHT22;11018;51.258;6.806;2023-04-19T08:39:17;12.80;15.40
4354;DHT22;11018;51.258;6.806;2023-04-19T08:41:43;12.90;15.30
4354;DHT22;11018;51.258;6.806;2023-04-19T08:44:10;12.90;14.00
4354;DHT22;11018;51.258;6.806;2023-04-19T08:46:36;13.00;13.90
4354;DHT22;11018;51.258;6.806;2023-04-19T08:49:04;13.00;14.40
4354;DHT22;11018;51.258;6.806;2023-04-19T08:51:31;13.00;13.30
4354;DHT22;11018;51.258;6.806;2023-04-19T08:53:57;13.00;13.50
4354;DHT22;11018;51.258;6.806;2023-04-19T08:56:24;12.90;13.30
4354;DHT22;11018;51.258;6.806;2023-04-19T08:58:51;12.80;13.20
4354;DHT22;11018;51.258;6.806;2023-04-19T09:01:16;12.80;13.20
4354;DHT22;11018;51.258;6.806;2023-04-19T09:03:43;12.80;14.00
4354;DHT22;11018;51.258;6.806;2023-04-19T09:06:10;12.90;14.20
4354;DHT22;11018;51.258;6.806;2023-04-19T09:08:38;13.00;12.50
4354;DHT22;11018;51.258;6.806;2023-04-19T09:11:04;13.00;13.30
4354;DHT22;11018;51.258;6.806;2023-04-19T09:13:30;13.20;14.30
4354;DHT22;11018;51.258;6.806;2023-04-19T09:15:56;13.20;13.40
4354;DHT22;11018;51.258;6.806;2023-04-19T09:18:23;13.20;13.40
4354;DHT22;11018;51.258;6.806;2023-04-19T09:20:49;13.30;13.50
4354;DHT22;11018;51.258;6.806;2023-04-19T09:23:17;13.30;13.40
4354;DHT22;11018;51.258;6.806;2023-04-19T09:25:54;13.30;12.50
4354;DHT22;11018;51.258;6.806;2023-04-19T09:28:22;13.30;13.70
4354;DHT22;11018;51.258;6.806;2023-04-19T09:30:49;13.40;13.40
4354;DHT22;11018;51.258;6.806;2023-04-19T09:33:35;13.30;12.40
4354;DHT22;11018;51.258;6.806;2023-04-19T09:36:04;13.10;13.20
4354;DHT22;11018;51.258;6.806;2023-04-19T09:38:30;13.20;13.00
4354;DHT22;11018;51.258;6.806;2023-04-19T09:41:10;13.30;13.30
4354;DHT22;11018;51.258;6.806;2023-04-19T09:43:35;13.50;13.40
4354;DHT22;11018;51.258;6.806;2023-04-19T09:46:01;13.60;11.40
4354;DHT22;11018;51.258;6.806;2023-04-19T09:48:27;13.40;11.30
4354;DHT22;11018;51.258;6.806;2023-04-19T09:51:00;13.30;11.60
4354;DHT22;11018;51.258;6.806;2023-04-19T09:53:28;13.40;11.20
4354;DHT22;11018;51.258;6.806;2023-04-19T09:55:54;13.40;10.90
4354;DHT22;11018;51.258;6.806;2023-04-19T09:58:20;13.40;11.50
4354;DHT22;11018;51.258;6.806;2023-04-19T10:00:47;13.50;11.60
4354;DHT22;11018;51.258;6.806;2023-04-19T10:03:14;13.60;11.00
4354;DHT22;11018;51.258;6.806;2023-04-19T10:05:41;13.60;10.90
4354;DHT22;11018;51.258;6.806;2023-04-19T10:08:08;13.80;10.30
4354;DHT22;11018;51.258;6.806;2023-04-19T10:10:34;13.80;8.40
4354;DHT22;11018;51.258;6.806;2023-04-19T10:13:02;13.70;8.60
4354;DHT22;11018;51.258;6.806;2023-04-19T10:15:29;13.70;8.90
4354;DHT22;11018;51.258;6.806;2023-04-19T10:17:56;13.80;9.90
4354;DHT22;11018;51.258;6.806;2023-04-19T10:20:31;14.00;8.70
4354;DHT22;11018;51.258;6.806;2023-04-19T10:22:58;14.20;7.60
4354;DHT22;11018;51.258;6.806;2023-04-19T10:25:28;14.10;8.10
4354;DHT22;11018;51.258;6.806;2023-04-19T10:27:54;13.90;6.60
4354;DHT22;11018;51.258;6.806;2023-04-19T10:30:21;13.70;7.20
4354;DHT22;11018;51.258;6.806;2023-04-19T10:32:55;13.80;7.50
4354;DHT22;11018;51.258;6.806;2023-04-19T10:35:26;13.90;6.80
4354;DHT22;11018;51.258;6.806;2023-04-19T10:38:06;14.00;5.00
4354;DHT22;11018;51.258;6.806;2023-04-19T10:40:53;14.10;6.90
4354;DHT22;11018;51.258;6.806;2023-04-19T10:43:23;14.00;4.50
4354;DHT22;11018;51.258;6.806;2023-04-19T10:45:49;13.80;4.90
4354;DHT22;11018;51.258;6.806;2023-04-19T10:51:10;13.90;5.30
4354;DHT22;11018;51.258;6.806;2023-04-19T10:54:00;13.90;5.70
4354;DHT22;11018;51.258;6.806;2023-04-19T11:01:38;13.90;5.30
4354;DHT22;11018;51.258;6.806;2023-04-19T11:07:02;14.00;4.20
4354;DHT22;11018;51.258;6.806;2023-04-19T11:09:44;14.10;4.40
4354;DHT22;11018;51.258;6.806;2023-04-19T11:17:50;14.20;4.60
4354;DHT22;11018;51.258;6.806;2023-04-19T11:20:17;14.40;5.40
4354;DHT22;11018;51.258;6.806;2023-04-19T11:22:46;14.60;3.70
4354;DHT22;11018;51.258;6.806;2023-04-19T11:25:23;14.80;3.70
4354;DHT22;11018;51.258;6.806;2023-04-19T11:27:50;15.00;4.90
4354;DHT22;11018;51.258;6.806;2023-04-19T11:30:21;15.20;4.00
4354;DHT22;11018;51.258;6.806;2023-04-19T11:32:49;15.20;4.00
4354;DHT22;11018;51.258;6.806;2023-04-19T11:35:21;15.30;2.60
4354;DHT22;11018;51.258;6.806;2023-04-19T11:37:47;15.30;2.70
4354;DHT22;11018;51.258;6.806;2023-04-19T11:40:17;14.80;3.10
4354;DHT22;11018;51.258;6.806;2023-04-19T11:42:43;14.70;3.10
4354;DHT22;11018;51.258;6.806;2023-04-19T11:45:10;14.50;3.50
4354;DHT22;11018;51.258;6.806;2023-04-19T11:48:14;14.50;4.60
4354;DHT22;11018;51.258;6.806;2023-04-19T11:50:44;14.60;4.80
4354;DHT22;11018;51.258;6.806;2023-04-19T11:53:20;14.70;4.20
4354;DHT22;11018;51.258;6.806;2023-04-19T11:55:53;14.60;3.30
4354;DHT22;11018;51.258;6.806;2023-04-19T11:58:36;14.70;3.90
4354;DHT22;11018;51.258;6.806;2023-04-19T12:01:13;14.70;4.10
4354;DHT22;11018;51.258;6.806;2023-04-19T12:03:43;14.90;6.80
4354;DHT22;11018;51.258;6.806;2023-04-19T12:06:11;15.00;2.50
4354;DHT22;11018;51.258;6.806;2023-04-19T12:08:41;15.00;3.80
4354;DHT22;11018;51.258;6.806;2023-04-19T12:11:07;14.90;4.00
4354;DHT22;11018;51.258;6.806;2023-04-19T12:13:34;15.00;3.40
4354;DHT22;11018;51.258;6.806;2023-04-19T12:16:00;15.10;4.30
4354;DHT22;11018;51.258;6.806;2023-04-19T12:18:26;15.00;3.80
4354;DHT22;11018;51.258;6.806;2023-04-19T12:20:52;14.90;2.60
4354;DHT22;11018;51.258;6.806;2023-04-19T12:23:19;15.00;3.50
4354;DHT22;11018;51.258;6.806;2023-04-19T12:25:46;15.30;3.30
4354;DHT22;11018;51.258;6.806;2023-04-19T12:28:14;15.40;2.20
4354;DHT22;11018;51.258;6.806;2023-04-19T12:30:40;15.30;1.30
4354;DHT22;11018;51.258;6.806;2023-04-19T12:33:07;15.40;3.20
4354;DHT22;11018;51.258;6.806;2023-04-19T12:35:33;15.50;2.40
4354;DHT22;11018;51.258;6.806;2023-04-19T12:38:00;15.60;1.60
4354;DHT22;11018;51.258;6.806;2023-04-19T12:40:27;15.60;2.30
4354;DHT22;11018;51.258;6.806;2023-04-19T12:42:53;15.70;1.60
4354;DHT22;11018;51.258;6.806;2023-04-19T12:45:19;15.90;1.70
4354;DHT22;11018;51.258;6.806;2023-04-19T12:47:46;16.10;1.30
4354;DHT22;11018;51.258;6.806;2023-04-19T12:50:13;16.10;2.30
4354;DHT22;11018;51.258;6.806;2023-04-19T12:52:39;15.80;1.60
4354;DHT22;11018;51.258;6.806;2023-04-19T12:55:06;15.90;3.80
4354;DHT22;11018;51.258;6.806;2023-04-19T12:57:31;16.00;2.40
4354;DHT22;11018;51.258;6.806;2023-04-19T12:59:57;16.00;1.00
4354;DHT22;11018;51.258;6.806;2023-04-19T13:02:23;15.80;1.10
4354;DHT22;11018;51.258;6.806;2023-04-19T13:04:48;15.70;2.60
4354;DHT22;11018;51.258;6.806;2023-04-19T13:07:14;15.70;1.50
4354;DHT22;11018;51.258;6.806;2023-04-19T13:09:40;15.60;2.20
4354;DHT22;11018;51.258;6.806;2023-04-19T13:12:05;15.70;2.70
4354;DHT22;11018;51.258;6.806;2023-04-19T13:14:31;15.70;2.10
4354;DHT22;11018;51.258;6.806;2023-04-19T13:16:57;15.30;2.20
4354;DHT22;11018;51.258;6.806;2023-04-19T13:19:22;15.50;4.20
4354;DHT22;11018;51.258;6.806;2023-04-19T13:21:48;15.70;4.10
4354;DHT22;11018;51.258;6.806;2023-04-19T13:24:13;15.90;3.20
4354;DHT22;11018;51.258;6.806;2023-04-19T13:26:39;15.80;3.50
4354;DHT22;11018;51.258;6.806;2023-04-19T13:29:05;16.00;3.10
4354;DHT22;11018;51.258;6.806;2023-04-19T13:31:33;16.80;2.60
4354;DHT22;11018;51.258;6.806;2023-04-19T13:33:59;17.10;1.60
4354;DHT22;11018;51.258;6.806;2023-04-19T13:36:25;17.50;1.00
4354;DHT22;11018;51.258;6.806;2023-04-19T13:38:52;17.50;1.00
4354;DHT22;11018;51.258;6.806;2023-04-19T13:41:18;17.60;1.00
4354;DHT22;11018;51.258;6.806;2023-04-19T13:43:44;18.20;1.10
4354;DHT22;11018;51.258;6.806;2023-04-19T13:46:10;18.60;1.00
4354;DHT22;11018;51.258;6.806;2023-04-19T13:48:35;18.90;1.00
4354;DHT22;11018;51.258;6.806;2023-04-19T13:51:01;19.00;1.00
4354;DHT22;11018;51.258;6.806;2023-04-19T13:53:27;18.40;1.00
4354;DHT22;11018;51.258;6.806;2023-04-19T13:55:53;18.00;1.00
4354;DHT22;11018;51.258;6.806;2023-04-19T13:58:19;18.10;1.00
4354;DHT22;11018;51.258;6.806;2023-04-19T14:00:45;18.40;1.00
4354;DHT22;11018;51.258;6.806;2023-04-19T14:03:12;18.60;1.00
4354;DHT22;11018;51.258;6.806;2023-04-19T14:05:38;18.30;1.00
4354;DHT22;11018;51.258;6.806;2023-04-19T14:08:03;18.40;1.00
4354;DHT22;11018;51.258;6.806;2023-04-19T14:10:30;18.20;1.00
4354;DHT22;11018;51.258;6.806;2023-04-19T14:12:55;18.00;1.00
4354;DHT22;11018;51.258;6.806;2023-04-19T14:15:21;18.20;1.00
4354;DHT22;11018;51.258;6.806;2023-04-19T14:17:48;18.80;1.00
4354;DHT22;11018;51.258;6.806;2023-04-19T14:20:14;19.50;1.00
4354;DHT22;11018;51.258;6.806;2023-04-19T14:22:40;20.10;1.00
4354;DHT22;11018;51.258;6.806;2023-04-19T14:25:06;20.60;1.00
4354;DHT22;11018;51.258;6.806;2023-04-19T14:27:32;20.70;1.00
4354;DHT22;11018;51.258;6.806;2023-04-19T14:29:57;20.40;1.00
4354;DHT22;11018;51.258;6.806;2023-04-19T14:32:23;20.30;1.00
4354;DHT22;11018;51.258;6.806;2023-04-19T14:34:49;20.10;1.00
4354;DHT22;11018;51.258;6.806;2023-04-19T14:37:16;20.30;1.00
4354;DHT22;11018;51.258;6.806;2023-04-19T14:39:42;20.80;1.00
4354;DHT22;11018;51.258;6.806;2023-04-19T14:42:08;21.20;1.00
4354;DHT22;11018;51.258;6.806;2023-04-19T14:44:33;21.50;1.00
4354;DHT22;11018;51.258;6.806;2023-04-19T14:46:59;20.80;1.00
4354;DHT22;11018;51.258;6.806;2023-04-19T14:49:25;19.50;1.00
4354;DHT22;11018;51.258;6.806;2023-04-19T14:51:51;19.30;1.00
4354;DHT22;11018;51.258;6.806;2023-04-19T14:54:16;19.40;1.00
4354;DHT22;11018;51.258;6.806;2023-04-19T14:56:42;19.60;1.00
4354;DHT22;11018;51.258;6.806;2023-04-19T14:59:07;19.80;1.00
4354;DHT22;11018;51.258;6.806;2023-04-19T15:01:33;19.60;1.00
4354;DHT22;11018;51.258;6.806;2023-04-19T15:03:59;19.80;1.00
4354;DHT22;11018;51.258;6.806;2023-04-19T15:06:25;20.00;1.00
4354;DHT22;11018;51.258;6.806;2023-04-19T15:08:50;20.20;1.00
4354;DHT22;11018;51.258;6.806;2023-04-19T15:11:16;20.20;1.00
4354;DHT22;11018;51.258;6.806;2023-04-19T15:13:41;20.30;1.00
4354;DHT22;11018;51.258;6.806;2023-04-19T15:16:07;19.10;1.00
4354;DHT22;11018;51.258;6.806;2023-04-19T15:18:33;19.00;1.00
4354;DHT22;11018;51.258;6.806;2023-04-19T15:21:01;19.60;1.00
4354;DHT22;11018;51.258;6.806;2023-04-19T15:23:26;20.10;1.00
4354;DHT22;11018;51.258;6.806;2023-04-19T15:25:52;20.60;1.00
4354;DHT22;11018;51.258;6.806;2023-04-19T15:28:17;20.70;1.00
4354;DHT22;11018;51.258;6.806;2023-04-19T15:30:43;20.20;1.00
4354;DHT22;11018;51.258;6.806;2023-04-19T15:33:08;19.50;1.00
4354;DHT22;11018;51.258;6.806;2023-04-19T15:35:34;19.60;1.00
4354;DHT22;11018;51.258;6.806;2023-04-19T15:38:00;19.80;1.00
4354;DHT22;11018;51.258;6.806;2023-04-19T15:40:25;19.90;1.00
4354;DHT22;11018;51.258;6.806;2023-04-19T15:42:52;19.90;1.00
4354;DHT22;11018;51.258;6.806;2023-04-19T15:45:18;19.60;1.00
4354;DHT22;11018;51.258;6.806;2023-04-19T15:47:44;19.70;1.00
4354;DHT22;11018;51.258;6.806;2023-04-19T15:50:09;20.10;1.00
4354;DHT22;11018;51.258;6.806;2023-04-19T15:52:35;20.70;1.00
4354;DHT22;11018;51.258;6.806;2023-04-19T15:55:01;21.00;1.00
4354;DHT22;11018;51.258;6.806;2023-04-19T15:57:26;20.70;1.00
4354;DHT22;11018;51.258;6.806;2023-04-19T15:59:52;20.90;1.00
4354;DHT22;11018;51.258;6.806;2023-04-19T16:02:17;21.10;1.00
4354;DHT22;11018;51.258;6.806;2023-04-19T16:04:45;20.70;1.00